<?xml version="1.0" encoding="UTF-8" standalone="no" ?>
<gpx xmlns="http://www.topografix.com/GPX/1/1" xmlns:xsi="http://www.w3.org/2001/XMLSchema-instance" xsi:schemaLocation="http://www.topografix.com/GPX/1/1 http://www.topografix.com/GPX/1/1/gpx.xsd" version="1.1" creator="VisuGPX - https://www.visugpx.com">
  <metadata>
    <name>Maroilles G1 AM</name>
    <desc><![CDATA[Parcours préparé pour sortie d'un journée en Thierache]]></desc>
  </metadata>
  <trk>
    <name><![CDATA[8564979-Maroilles 30 variante]]></name>
    <trkseg>
      <trkpt lat="50.13446" lon="3.76166">
        <ele>152</ele>
        <time>2018-04-22T11:30:36Z</time>
      </trkpt>
      <trkpt lat="50.13435" lon="3.76094">
        <ele>151</ele>
        <time>2018-04-22T11:31:36Z</time>
      </trkpt>
      <trkpt lat="50.13421" lon="3.76052">
        <ele>149</ele>
        <time>2018-04-22T11:32:36Z</time>
      </trkpt>
      <trkpt lat="50.13424" lon="3.7603">
        <ele>149</ele>
        <time>2018-04-22T11:33:36Z</time>
      </trkpt>
      <trkpt lat="50.13417" lon="3.76022">
        <ele>149</ele>
        <time>2018-04-22T11:34:36Z</time>
      </trkpt>
      <trkpt lat="50.13403" lon="3.75995">
        <ele>147</ele>
        <time>2018-04-22T11:35:36Z</time>
      </trkpt>
      <trkpt lat="50.13399" lon="3.7598">
        <ele>147</ele>
        <time>2018-04-22T11:36:36Z</time>
      </trkpt>
      <trkpt lat="50.13455" lon="3.75833">
        <ele>143</ele>
        <time>2018-04-22T11:37:36Z</time>
      </trkpt>
      <trkpt lat="50.13485" lon="3.75772">
        <ele>143</ele>
        <time>2018-04-22T11:38:36Z</time>
      </trkpt>
      <trkpt lat="50.13493" lon="3.75765">
        <ele>143</ele>
        <time>2018-04-22T11:39:36Z</time>
      </trkpt>
      <trkpt lat="50.13505" lon="3.7576">
        <ele>143</ele>
        <time>2018-04-22T11:40:36Z</time>
      </trkpt>
      <trkpt lat="50.13511" lon="3.75755">
        <ele>143</ele>
        <time>2018-04-22T11:41:36Z</time>
      </trkpt>
      <trkpt lat="50.13532" lon="3.7571">
        <ele>143</ele>
        <time>2018-04-22T11:42:36Z</time>
      </trkpt>
      <trkpt lat="50.13547" lon="3.75685">
        <ele>143</ele>
        <time>2018-04-22T11:43:36Z</time>
      </trkpt>
      <trkpt lat="50.13564" lon="3.75666">
        <ele>144</ele>
        <time>2018-04-22T11:44:36Z</time>
      </trkpt>
      <trkpt lat="50.13589" lon="3.75646">
        <ele>144</ele>
        <time>2018-04-22T11:45:36Z</time>
      </trkpt>
      <trkpt lat="50.136" lon="3.75629">
        <ele>144</ele>
        <time>2018-04-22T11:46:36Z</time>
      </trkpt>
      <trkpt lat="50.13609" lon="3.75605">
        <ele>143</ele>
        <time>2018-04-22T11:47:36Z</time>
      </trkpt>
      <trkpt lat="50.1364" lon="3.75553">
        <ele>142</ele>
        <time>2018-04-22T11:48:36Z</time>
      </trkpt>
      <trkpt lat="50.13663" lon="3.75526">
        <ele>141</ele>
        <time>2018-04-22T11:49:36Z</time>
      </trkpt>
      <trkpt lat="50.13701" lon="3.75465">
        <ele>140</ele>
        <time>2018-04-22T11:50:36Z</time>
      </trkpt>
      <trkpt lat="50.13725" lon="3.75412">
        <ele>139</ele>
        <time>2018-04-22T11:51:36Z</time>
      </trkpt>
      <trkpt lat="50.13731" lon="3.75391">
        <ele>139</ele>
        <time>2018-04-22T11:52:36Z</time>
      </trkpt>
      <trkpt lat="50.13737" lon="3.75366">
        <ele>139</ele>
        <time>2018-04-22T11:53:36Z</time>
      </trkpt>
      <trkpt lat="50.13741" lon="3.75338">
        <ele>139</ele>
        <time>2018-04-22T11:54:36Z</time>
      </trkpt>
      <trkpt lat="50.13746" lon="3.7526">
        <ele>139</ele>
        <time>2018-04-22T11:55:36Z</time>
      </trkpt>
      <trkpt lat="50.1376" lon="3.75181">
        <ele>137</ele>
        <time>2018-04-22T11:56:36Z</time>
      </trkpt>
      <trkpt lat="50.13761" lon="3.75158">
        <ele>137</ele>
        <time>2018-04-22T11:57:36Z</time>
      </trkpt>
      <trkpt lat="50.13766" lon="3.75137">
        <ele>137</ele>
        <time>2018-04-22T11:58:36Z</time>
      </trkpt>
      <trkpt lat="50.1377" lon="3.75123">
        <ele>137</ele>
        <time>2018-04-22T11:59:36Z</time>
      </trkpt>
      <trkpt lat="50.1378" lon="3.75103">
        <ele>137</ele>
        <time>2018-04-22T12:00:36Z</time>
      </trkpt>
      <trkpt lat="50.13791" lon="3.7509">
        <ele>137</ele>
        <time>2018-04-22T12:01:36Z</time>
      </trkpt>
      <trkpt lat="50.13848" lon="3.75036">
        <ele>137</ele>
        <time>2018-04-22T12:02:36Z</time>
      </trkpt>
      <trkpt lat="50.13866" lon="3.75">
        <ele>136</ele>
        <time>2018-04-22T12:03:36Z</time>
      </trkpt>
      <trkpt lat="50.13873" lon="3.74982">
        <ele>136</ele>
        <time>2018-04-22T12:04:36Z</time>
      </trkpt>
      <trkpt lat="50.1388" lon="3.7496">
        <ele>136</ele>
        <time>2018-04-22T12:05:36Z</time>
      </trkpt>
      <trkpt lat="50.1389" lon="3.7491">
        <ele>136</ele>
        <time>2018-04-22T12:06:36Z</time>
      </trkpt>
      <trkpt lat="50.13896" lon="3.74889">
        <ele>135</ele>
        <time>2018-04-22T12:07:36Z</time>
      </trkpt>
      <trkpt lat="50.13929" lon="3.74845">
        <ele>135</ele>
        <time>2018-04-22T12:08:36Z</time>
      </trkpt>
      <trkpt lat="50.13957" lon="3.74786">
        <ele>136</ele>
        <time>2018-04-22T12:09:36Z</time>
      </trkpt>
      <trkpt lat="50.13969" lon="3.74757">
        <ele>136</ele>
        <time>2018-04-22T12:10:36Z</time>
      </trkpt>
      <trkpt lat="50.13979" lon="3.74725">
        <ele>136</ele>
        <time>2018-04-22T12:11:36Z</time>
      </trkpt>
      <trkpt lat="50.14004" lon="3.74618">
        <ele>135</ele>
        <time>2018-04-22T12:12:36Z</time>
      </trkpt>
      <trkpt lat="50.14011" lon="3.74596">
        <ele>135</ele>
        <time>2018-04-22T12:13:36Z</time>
      </trkpt>
      <trkpt lat="50.14079" lon="3.74445">
        <ele>133</ele>
        <time>2018-04-22T12:14:36Z</time>
      </trkpt>
      <trkpt lat="50.14092" lon="3.74411">
        <ele>133</ele>
        <time>2018-04-22T12:15:36Z</time>
      </trkpt>
      <trkpt lat="50.14148" lon="3.74281">
        <ele>132</ele>
        <time>2018-04-22T12:16:36Z</time>
      </trkpt>
      <trkpt lat="50.14148" lon="3.74281">
        <ele>132</ele>
        <time>2018-04-22T12:17:36Z</time>
      </trkpt>
      <trkpt lat="50.14229" lon="3.74082">
        <ele>132</ele>
        <time>2018-04-22T12:18:36Z</time>
      </trkpt>
      <trkpt lat="50.14238" lon="3.74051">
        <ele>131</ele>
        <time>2018-04-22T12:19:36Z</time>
      </trkpt>
      <trkpt lat="50.14256" lon="3.73975">
        <ele>130</ele>
        <time>2018-04-22T12:20:36Z</time>
      </trkpt>
      <trkpt lat="50.14276" lon="3.73886">
        <ele>131</ele>
        <time>2018-04-22T12:21:36Z</time>
      </trkpt>
      <trkpt lat="50.14278" lon="3.73858">
        <ele>131</ele>
        <time>2018-04-22T12:22:36Z</time>
      </trkpt>
      <trkpt lat="50.14274" lon="3.73821">
        <ele>132</ele>
        <time>2018-04-22T12:23:36Z</time>
      </trkpt>
      <trkpt lat="50.14273" lon="3.73767">
        <ele>132</ele>
        <time>2018-04-22T12:24:36Z</time>
      </trkpt>
      <trkpt lat="50.1427" lon="3.73726">
        <ele>132</ele>
        <time>2018-04-22T12:25:36Z</time>
      </trkpt>
      <trkpt lat="50.14263" lon="3.73662">
        <ele>132</ele>
        <time>2018-04-22T12:26:36Z</time>
      </trkpt>
      <trkpt lat="50.14243" lon="3.73526">
        <ele>132</ele>
        <time>2018-04-22T12:27:36Z</time>
      </trkpt>
      <trkpt lat="50.14231" lon="3.73507">
        <ele>132</ele>
        <time>2018-04-22T12:28:36Z</time>
      </trkpt>
      <trkpt lat="50.14212" lon="3.73482">
        <ele>133</ele>
        <time>2018-04-22T12:29:36Z</time>
      </trkpt>
      <trkpt lat="50.14192" lon="3.73463">
        <ele>133</ele>
        <time>2018-04-22T12:30:36Z</time>
      </trkpt>
      <trkpt lat="50.14169" lon="3.73446">
        <ele>133</ele>
        <time>2018-04-22T12:31:36Z</time>
      </trkpt>
      <trkpt lat="50.14134" lon="3.73431">
        <ele>133</ele>
        <time>2018-04-22T12:32:36Z</time>
      </trkpt>
      <trkpt lat="50.14078" lon="3.73402">
        <ele>133</ele>
        <time>2018-04-22T12:33:36Z</time>
      </trkpt>
      <trkpt lat="50.14053" lon="3.7337">
        <ele>132</ele>
        <time>2018-04-22T12:34:36Z</time>
      </trkpt>
      <trkpt lat="50.13958" lon="3.7321">
        <ele>134</ele>
        <time>2018-04-22T12:35:36Z</time>
      </trkpt>
      <trkpt lat="50.13904" lon="3.73123">
        <ele>135</ele>
        <time>2018-04-22T12:36:36Z</time>
      </trkpt>
      <trkpt lat="50.13887" lon="3.73102">
        <ele>134</ele>
        <time>2018-04-22T12:37:36Z</time>
      </trkpt>
      <trkpt lat="50.1384" lon="3.73057">
        <ele>132</ele>
        <time>2018-04-22T12:38:36Z</time>
      </trkpt>
      <trkpt lat="50.13769" lon="3.72956">
        <ele>131</ele>
        <time>2018-04-22T12:39:36Z</time>
      </trkpt>
      <trkpt lat="50.13603" lon="3.72788">
        <ele>131</ele>
        <time>2018-04-22T12:40:36Z</time>
      </trkpt>
      <trkpt lat="50.13566" lon="3.7276">
        <ele>131</ele>
        <time>2018-04-22T12:41:36Z</time>
      </trkpt>
      <trkpt lat="50.13496" lon="3.72727">
        <ele>133</ele>
        <time>2018-04-22T12:42:36Z</time>
      </trkpt>
      <trkpt lat="50.13455" lon="3.72714">
        <ele>133</ele>
        <time>2018-04-22T12:43:36Z</time>
      </trkpt>
      <trkpt lat="50.13379" lon="3.72696">
        <ele>133</ele>
        <time>2018-04-22T12:44:36Z</time>
      </trkpt>
      <trkpt lat="50.13379" lon="3.72696">
        <ele>133</ele>
        <time>2018-04-22T12:45:36Z</time>
      </trkpt>
      <trkpt lat="50.13342" lon="3.72688">
        <ele>132</ele>
        <time>2018-04-22T12:46:36Z</time>
      </trkpt>
      <trkpt lat="50.13298" lon="3.72674">
        <ele>133</ele>
        <time>2018-04-22T12:47:36Z</time>
      </trkpt>
      <trkpt lat="50.13221" lon="3.72629">
        <ele>132</ele>
        <time>2018-04-22T12:48:36Z</time>
      </trkpt>
      <trkpt lat="50.13188" lon="3.72612">
        <ele>132</ele>
        <time>2018-04-22T12:49:36Z</time>
      </trkpt>
      <trkpt lat="50.13096" lon="3.72571">
        <ele>134</ele>
        <time>2018-04-22T12:50:36Z</time>
      </trkpt>
      <trkpt lat="50.13085" lon="3.72564">
        <ele>134</ele>
        <time>2018-04-22T12:51:36Z</time>
      </trkpt>
      <trkpt lat="50.13076" lon="3.72555">
        <ele>134</ele>
        <time>2018-04-22T12:52:36Z</time>
      </trkpt>
      <trkpt lat="50.13024" lon="3.72466">
        <ele>134</ele>
        <time>2018-04-22T12:53:36Z</time>
      </trkpt>
      <trkpt lat="50.12958" lon="3.72316">
        <ele>133</ele>
        <time>2018-04-22T12:54:36Z</time>
      </trkpt>
      <trkpt lat="50.12955" lon="3.72307">
        <ele>133</ele>
        <time>2018-04-22T12:55:36Z</time>
      </trkpt>
      <trkpt lat="50.12955" lon="3.72288">
        <ele>133</ele>
        <time>2018-04-22T12:56:36Z</time>
      </trkpt>
      <trkpt lat="50.12962" lon="3.72213">
        <ele>131</ele>
        <time>2018-04-22T12:57:36Z</time>
      </trkpt>
      <trkpt lat="50.12963" lon="3.72185">
        <ele>131</ele>
        <time>2018-04-22T12:58:36Z</time>
      </trkpt>
      <trkpt lat="50.1296" lon="3.72162">
        <ele>131</ele>
        <time>2018-04-22T12:59:36Z</time>
      </trkpt>
      <trkpt lat="50.12927" lon="3.72068">
        <ele>132</ele>
        <time>2018-04-22T13:00:36Z</time>
      </trkpt>
      <trkpt lat="50.12904" lon="3.72027">
        <ele>133</ele>
        <time>2018-04-22T13:01:36Z</time>
      </trkpt>
      <trkpt lat="50.12894" lon="3.72012">
        <ele>134</ele>
        <time>2018-04-22T13:02:36Z</time>
      </trkpt>
      <trkpt lat="50.12882" lon="3.72">
        <ele>134</ele>
        <time>2018-04-22T13:03:36Z</time>
      </trkpt>
      <trkpt lat="50.12853" lon="3.71977">
        <ele>133</ele>
        <time>2018-04-22T13:04:36Z</time>
      </trkpt>
      <trkpt lat="50.12804" lon="3.71955">
        <ele>133</ele>
        <time>2018-04-22T13:05:36Z</time>
      </trkpt>
      <trkpt lat="50.12798" lon="3.71949">
        <ele>133</ele>
        <time>2018-04-22T13:06:36Z</time>
      </trkpt>
      <trkpt lat="50.12792" lon="3.7194">
        <ele>133</ele>
        <time>2018-04-22T13:07:36Z</time>
      </trkpt>
      <trkpt lat="50.12785" lon="3.7192">
        <ele>133</ele>
        <time>2018-04-22T13:08:36Z</time>
      </trkpt>
      <trkpt lat="50.12769" lon="3.71858">
        <ele>135</ele>
        <time>2018-04-22T13:09:36Z</time>
      </trkpt>
      <trkpt lat="50.12763" lon="3.71843">
        <ele>135</ele>
        <time>2018-04-22T13:10:36Z</time>
      </trkpt>
      <trkpt lat="50.12755" lon="3.71835">
        <ele>136</ele>
        <time>2018-04-22T13:11:36Z</time>
      </trkpt>
      <trkpt lat="50.12744" lon="3.71826">
        <ele>136</ele>
        <time>2018-04-22T13:12:36Z</time>
      </trkpt>
      <trkpt lat="50.12684" lon="3.71803">
        <ele>137</ele>
        <time>2018-04-22T13:13:36Z</time>
      </trkpt>
      <trkpt lat="50.12667" lon="3.718">
        <ele>137</ele>
        <time>2018-04-22T13:14:36Z</time>
      </trkpt>
      <trkpt lat="50.12636" lon="3.71798">
        <ele>137</ele>
        <time>2018-04-22T13:15:36Z</time>
      </trkpt>
      <trkpt lat="50.12613" lon="3.7179">
        <ele>138</ele>
        <time>2018-04-22T13:16:36Z</time>
      </trkpt>
      <trkpt lat="50.12596" lon="3.7178">
        <ele>138</ele>
        <time>2018-04-22T13:17:36Z</time>
      </trkpt>
      <trkpt lat="50.12574" lon="3.71761">
        <ele>138</ele>
        <time>2018-04-22T13:18:36Z</time>
      </trkpt>
      <trkpt lat="50.12566" lon="3.71757">
        <ele>138</ele>
        <time>2018-04-22T13:19:36Z</time>
      </trkpt>
      <trkpt lat="50.12554" lon="3.71759">
        <ele>139</ele>
        <time>2018-04-22T13:20:36Z</time>
      </trkpt>
      <trkpt lat="50.12492" lon="3.71787">
        <ele>140</ele>
        <time>2018-04-22T13:21:36Z</time>
      </trkpt>
      <trkpt lat="50.12485" lon="3.71784">
        <ele>140</ele>
        <time>2018-04-22T13:22:36Z</time>
      </trkpt>
      <trkpt lat="50.12462" lon="3.71767">
        <ele>140</ele>
        <time>2018-04-22T13:23:36Z</time>
      </trkpt>
      <trkpt lat="50.1245" lon="3.71762">
        <ele>140</ele>
        <time>2018-04-22T13:24:36Z</time>
      </trkpt>
      <trkpt lat="50.12434" lon="3.71761">
        <ele>140</ele>
        <time>2018-04-22T13:25:36Z</time>
      </trkpt>
      <trkpt lat="50.1243" lon="3.71742">
        <ele>140</ele>
        <time>2018-04-22T13:26:36Z</time>
      </trkpt>
      <trkpt lat="50.12355" lon="3.71484">
        <ele>141</ele>
        <time>2018-04-22T13:27:36Z</time>
      </trkpt>
      <trkpt lat="50.1227" lon="3.71246">
        <ele>142</ele>
        <time>2018-04-22T13:28:36Z</time>
      </trkpt>
      <trkpt lat="50.12242" lon="3.71155">
        <ele>141</ele>
        <time>2018-04-22T13:29:36Z</time>
      </trkpt>
      <trkpt lat="50.12233" lon="3.71136">
        <ele>141</ele>
        <time>2018-04-22T13:30:36Z</time>
      </trkpt>
      <trkpt lat="50.12221" lon="3.71119">
        <ele>141</ele>
        <time>2018-04-22T13:31:36Z</time>
      </trkpt>
      <trkpt lat="50.1219" lon="3.71078">
        <ele>141</ele>
        <time>2018-04-22T13:32:36Z</time>
      </trkpt>
      <trkpt lat="50.12079" lon="3.70921">
        <ele>143</ele>
        <time>2018-04-22T13:33:36Z</time>
      </trkpt>
      <trkpt lat="50.12064" lon="3.70895">
        <ele>143</ele>
        <time>2018-04-22T13:34:36Z</time>
      </trkpt>
      <trkpt lat="50.1206" lon="3.70881">
        <ele>142</ele>
        <time>2018-04-22T13:35:36Z</time>
      </trkpt>
      <trkpt lat="50.12052" lon="3.70834">
        <ele>141</ele>
        <time>2018-04-22T13:36:36Z</time>
      </trkpt>
      <trkpt lat="50.12052" lon="3.70834">
        <ele>141</ele>
        <time>2018-04-22T13:37:36Z</time>
      </trkpt>
      <trkpt lat="50.12047" lon="3.70802">
        <ele>141</ele>
        <time>2018-04-22T13:38:36Z</time>
      </trkpt>
      <trkpt lat="50.12036" lon="3.70766">
        <ele>140</ele>
        <time>2018-04-22T13:39:36Z</time>
      </trkpt>
      <trkpt lat="50.12027" lon="3.70747">
        <ele>140</ele>
        <time>2018-04-22T13:40:36Z</time>
      </trkpt>
      <trkpt lat="50.12021" lon="3.70739">
        <ele>140</ele>
        <time>2018-04-22T13:41:36Z</time>
      </trkpt>
      <trkpt lat="50.1189" lon="3.70606">
        <ele>140</ele>
        <time>2018-04-22T13:42:36Z</time>
      </trkpt>
      <trkpt lat="50.1187" lon="3.70583">
        <ele>139</ele>
        <time>2018-04-22T13:43:36Z</time>
      </trkpt>
      <trkpt lat="50.11862" lon="3.70548">
        <ele>139</ele>
        <time>2018-04-22T13:44:36Z</time>
      </trkpt>
      <trkpt lat="50.11853" lon="3.70584">
        <ele>139</ele>
        <time>2018-04-22T13:45:36Z</time>
      </trkpt>
      <trkpt lat="50.1185" lon="3.70617">
        <ele>140</ele>
        <time>2018-04-22T13:46:36Z</time>
      </trkpt>
      <trkpt lat="50.1185" lon="3.7064">
        <ele>140</ele>
        <time>2018-04-22T13:47:36Z</time>
      </trkpt>
      <trkpt lat="50.11869" lon="3.70729">
        <ele>142</ele>
        <time>2018-04-22T13:48:36Z</time>
      </trkpt>
      <trkpt lat="50.11873" lon="3.70763">
        <ele>142</ele>
        <time>2018-04-22T13:49:36Z</time>
      </trkpt>
      <trkpt lat="50.11876" lon="3.70811">
        <ele>143</ele>
        <time>2018-04-22T13:50:36Z</time>
      </trkpt>
      <trkpt lat="50.11873" lon="3.70831">
        <ele>143</ele>
        <time>2018-04-22T13:51:36Z</time>
      </trkpt>
      <trkpt lat="50.11868" lon="3.70851">
        <ele>144</ele>
        <time>2018-04-22T13:52:36Z</time>
      </trkpt>
      <trkpt lat="50.11846" lon="3.70911">
        <ele>143</ele>
        <time>2018-04-22T13:53:36Z</time>
      </trkpt>
      <trkpt lat="50.11828" lon="3.70971">
        <ele>142</ele>
        <time>2018-04-22T13:54:36Z</time>
      </trkpt>
      <trkpt lat="50.11822" lon="3.71">
        <ele>142</ele>
        <time>2018-04-22T13:55:36Z</time>
      </trkpt>
      <trkpt lat="50.11819" lon="3.71027">
        <ele>141</ele>
        <time>2018-04-22T13:56:36Z</time>
      </trkpt>
      <trkpt lat="50.11811" lon="3.71134">
        <ele>140</ele>
        <time>2018-04-22T13:57:36Z</time>
      </trkpt>
      <trkpt lat="50.118" lon="3.71208">
        <ele>139</ele>
        <time>2018-04-22T13:58:36Z</time>
      </trkpt>
      <trkpt lat="50.11763" lon="3.71382">
        <ele>142</ele>
        <time>2018-04-22T13:59:36Z</time>
      </trkpt>
      <trkpt lat="50.11732" lon="3.71496">
        <ele>143</ele>
        <time>2018-04-22T14:00:36Z</time>
      </trkpt>
      <trkpt lat="50.11725" lon="3.71556">
        <ele>142</ele>
        <time>2018-04-22T14:01:36Z</time>
      </trkpt>
      <trkpt lat="50.11718" lon="3.71701">
        <ele>141</ele>
        <time>2018-04-22T14:02:36Z</time>
      </trkpt>
      <trkpt lat="50.11714" lon="3.71748">
        <ele>142</ele>
        <time>2018-04-22T14:03:36Z</time>
      </trkpt>
      <trkpt lat="50.11706" lon="3.71805">
        <ele>142</ele>
        <time>2018-04-22T14:04:36Z</time>
      </trkpt>
      <trkpt lat="50.11684" lon="3.71906">
        <ele>143</ele>
        <time>2018-04-22T14:05:36Z</time>
      </trkpt>
      <trkpt lat="50.11677" lon="3.71955">
        <ele>142</ele>
        <time>2018-04-22T14:06:36Z</time>
      </trkpt>
      <trkpt lat="50.11671" lon="3.72015">
        <ele>142</ele>
        <time>2018-04-22T14:07:36Z</time>
      </trkpt>
      <trkpt lat="50.1167" lon="3.72037">
        <ele>142</ele>
        <time>2018-04-22T14:08:36Z</time>
      </trkpt>
      <trkpt lat="50.11676" lon="3.72121">
        <ele>142</ele>
        <time>2018-04-22T14:09:36Z</time>
      </trkpt>
      <trkpt lat="50.11687" lon="3.72178">
        <ele>142</ele>
        <time>2018-04-22T14:10:36Z</time>
      </trkpt>
      <trkpt lat="50.11692" lon="3.72229">
        <ele>141</ele>
        <time>2018-04-22T14:11:36Z</time>
      </trkpt>
      <trkpt lat="50.11691" lon="3.72251">
        <ele>141</ele>
        <time>2018-04-22T14:12:36Z</time>
      </trkpt>
      <trkpt lat="50.11686" lon="3.7227">
        <ele>141</ele>
        <time>2018-04-22T14:13:36Z</time>
      </trkpt>
      <trkpt lat="50.11642" lon="3.72347">
        <ele>143</ele>
        <time>2018-04-22T14:14:36Z</time>
      </trkpt>
      <trkpt lat="50.11622" lon="3.72383">
        <ele>144</ele>
        <time>2018-04-22T14:15:36Z</time>
      </trkpt>
      <trkpt lat="50.11612" lon="3.72407">
        <ele>145</ele>
        <time>2018-04-22T14:16:36Z</time>
      </trkpt>
      <trkpt lat="50.11514" lon="3.72721">
        <ele>156</ele>
        <time>2018-04-22T14:17:36Z</time>
      </trkpt>
      <trkpt lat="50.1147" lon="3.72835">
        <ele>158</ele>
        <time>2018-04-22T14:18:36Z</time>
      </trkpt>
      <trkpt lat="50.11402" lon="3.73038">
        <ele>164</ele>
        <time>2018-04-22T14:19:36Z</time>
      </trkpt>
      <trkpt lat="50.11402" lon="3.73038">
        <ele>164</ele>
        <time>2018-04-22T14:20:36Z</time>
      </trkpt>
      <trkpt lat="50.11392" lon="3.73068">
        <ele>165</ele>
        <time>2018-04-22T14:21:36Z</time>
      </trkpt>
      <trkpt lat="50.11348" lon="3.73172">
        <ele>166</ele>
        <time>2018-04-22T14:22:36Z</time>
      </trkpt>
      <trkpt lat="50.11214" lon="3.73375">
        <ele>173</ele>
        <time>2018-04-22T14:23:36Z</time>
      </trkpt>
      <trkpt lat="50.11201" lon="3.73403">
        <ele>174</ele>
        <time>2018-04-22T14:24:36Z</time>
      </trkpt>
      <trkpt lat="50.11165" lon="3.73472">
        <ele>175</ele>
        <time>2018-04-22T14:25:36Z</time>
      </trkpt>
      <trkpt lat="50.11153" lon="3.73506">
        <ele>175</ele>
        <time>2018-04-22T14:26:36Z</time>
      </trkpt>
      <trkpt lat="50.11133" lon="3.73571">
        <ele>176</ele>
        <time>2018-04-22T14:27:36Z</time>
      </trkpt>
      <trkpt lat="50.111" lon="3.73726">
        <ele>177</ele>
        <time>2018-04-22T14:28:36Z</time>
      </trkpt>
      <trkpt lat="50.11087" lon="3.73865">
        <ele>181</ele>
        <time>2018-04-22T14:29:36Z</time>
      </trkpt>
      <trkpt lat="50.11079" lon="3.73903">
        <ele>181</ele>
        <time>2018-04-22T14:30:36Z</time>
      </trkpt>
      <trkpt lat="50.11044" lon="3.74045">
        <ele>181</ele>
        <time>2018-04-22T14:31:36Z</time>
      </trkpt>
      <trkpt lat="50.11" lon="3.74143">
        <ele>182</ele>
        <time>2018-04-22T14:32:36Z</time>
      </trkpt>
      <trkpt lat="50.1092" lon="3.74291">
        <ele>180</ele>
        <time>2018-04-22T14:33:36Z</time>
      </trkpt>
      <trkpt lat="50.10914" lon="3.74317">
        <ele>179</ele>
        <time>2018-04-22T14:34:36Z</time>
      </trkpt>
      <trkpt lat="50.10907" lon="3.74398">
        <ele>179</ele>
        <time>2018-04-22T14:35:36Z</time>
      </trkpt>
      <trkpt lat="50.10893" lon="3.74505">
        <ele>178</ele>
        <time>2018-04-22T14:36:36Z</time>
      </trkpt>
      <trkpt lat="50.10852" lon="3.747">
        <ele>180</ele>
        <time>2018-04-22T14:37:36Z</time>
      </trkpt>
      <trkpt lat="50.10845" lon="3.74758">
        <ele>181</ele>
        <time>2018-04-22T14:38:36Z</time>
      </trkpt>
      <trkpt lat="50.10835" lon="3.74809">
        <ele>181</ele>
        <time>2018-04-22T14:39:36Z</time>
      </trkpt>
      <trkpt lat="50.10823" lon="3.74848">
        <ele>181</ele>
        <time>2018-04-22T14:40:36Z</time>
      </trkpt>
      <trkpt lat="50.10781" lon="3.74942">
        <ele>180</ele>
        <time>2018-04-22T14:41:36Z</time>
      </trkpt>
      <trkpt lat="50.1077" lon="3.74974">
        <ele>179</ele>
        <time>2018-04-22T14:42:36Z</time>
      </trkpt>
      <trkpt lat="50.1076" lon="3.75015">
        <ele>179</ele>
        <time>2018-04-22T14:43:36Z</time>
      </trkpt>
      <trkpt lat="50.10742" lon="3.75114">
        <ele>180</ele>
        <time>2018-04-22T14:44:36Z</time>
      </trkpt>
      <trkpt lat="50.10677" lon="3.7558">
        <ele>185</ele>
        <time>2018-04-22T14:45:36Z</time>
      </trkpt>
      <trkpt lat="50.10676" lon="3.75606">
        <ele>185</ele>
        <time>2018-04-22T14:46:36Z</time>
      </trkpt>
      <trkpt lat="50.10678" lon="3.75641">
        <ele>185</ele>
        <time>2018-04-22T14:47:36Z</time>
      </trkpt>
      <trkpt lat="50.10681" lon="3.75693">
        <ele>184</ele>
        <time>2018-04-22T14:48:36Z</time>
      </trkpt>
      <trkpt lat="50.10686" lon="3.75732">
        <ele>183</ele>
        <time>2018-04-22T14:49:36Z</time>
      </trkpt>
      <trkpt lat="50.10692" lon="3.7577">
        <ele>183</ele>
        <time>2018-04-22T14:50:36Z</time>
      </trkpt>
      <trkpt lat="50.10723" lon="3.75925">
        <ele>179</ele>
        <time>2018-04-22T14:51:36Z</time>
      </trkpt>
      <trkpt lat="50.10723" lon="3.75937">
        <ele>178</ele>
        <time>2018-04-22T14:52:36Z</time>
      </trkpt>
      <trkpt lat="50.10722" lon="3.75944">
        <ele>178</ele>
        <time>2018-04-22T14:53:36Z</time>
      </trkpt>
      <trkpt lat="50.10709" lon="3.75983">
        <ele>177</ele>
        <time>2018-04-22T14:54:36Z</time>
      </trkpt>
      <trkpt lat="50.107" lon="3.7602">
        <ele>176</ele>
        <time>2018-04-22T14:55:36Z</time>
      </trkpt>
      <trkpt lat="50.107" lon="3.7604">
        <ele>175</ele>
        <time>2018-04-22T14:56:36Z</time>
      </trkpt>
      <trkpt lat="50.10703" lon="3.76065">
        <ele>174</ele>
        <time>2018-04-22T14:57:36Z</time>
      </trkpt>
      <trkpt lat="50.10742" lon="3.76269">
        <ele>167</ele>
        <time>2018-04-22T14:58:36Z</time>
      </trkpt>
      <trkpt lat="50.10707" lon="3.7627">
        <ele>167</ele>
        <time>2018-04-22T14:59:36Z</time>
      </trkpt>
      <trkpt lat="50.10676" lon="3.76279">
        <ele>166</ele>
        <time>2018-04-22T15:00:36Z</time>
      </trkpt>
      <trkpt lat="50.10605" lon="3.76309">
        <ele>169</ele>
        <time>2018-04-22T15:01:36Z</time>
      </trkpt>
      <trkpt lat="50.10605" lon="3.76309">
        <ele>169</ele>
        <time>2018-04-22T15:02:36Z</time>
      </trkpt>
      <trkpt lat="50.10591" lon="3.76315">
        <ele>169</ele>
        <time>2018-04-22T15:03:36Z</time>
      </trkpt>
      <trkpt lat="50.10512" lon="3.76373">
        <ele>169</ele>
        <time>2018-04-22T15:04:36Z</time>
      </trkpt>
      <trkpt lat="50.10478" lon="3.76378">
        <ele>169</ele>
        <time>2018-04-22T15:05:36Z</time>
      </trkpt>
      <trkpt lat="50.10297" lon="3.76369">
        <ele>175</ele>
        <time>2018-04-22T15:06:36Z</time>
      </trkpt>
      <trkpt lat="50.10047" lon="3.76364">
        <ele>181</ele>
        <time>2018-04-22T15:07:36Z</time>
      </trkpt>
      <trkpt lat="50.10005" lon="3.76354">
        <ele>182</ele>
        <time>2018-04-22T15:08:36Z</time>
      </trkpt>
      <trkpt lat="50.09918" lon="3.76328">
        <ele>186</ele>
        <time>2018-04-22T15:09:36Z</time>
      </trkpt>
      <trkpt lat="50.09832" lon="3.76306">
        <ele>188</ele>
        <time>2018-04-22T15:10:36Z</time>
      </trkpt>
      <trkpt lat="50.09732" lon="3.76274">
        <ele>191</ele>
        <time>2018-04-22T15:11:36Z</time>
      </trkpt>
      <trkpt lat="50.09666" lon="3.76263">
        <ele>191</ele>
        <time>2018-04-22T15:12:36Z</time>
      </trkpt>
      <trkpt lat="50.09543" lon="3.76259">
        <ele>190</ele>
        <time>2018-04-22T15:13:36Z</time>
      </trkpt>
      <trkpt lat="50.09393" lon="3.76274">
        <ele>189</ele>
        <time>2018-04-22T15:14:36Z</time>
      </trkpt>
      <trkpt lat="50.09151" lon="3.76304">
        <ele>194</ele>
        <time>2018-04-22T15:15:36Z</time>
      </trkpt>
      <trkpt lat="50.09041" lon="3.7632">
        <ele>195</ele>
        <time>2018-04-22T15:16:36Z</time>
      </trkpt>
      <trkpt lat="50.08964" lon="3.76345">
        <ele>195</ele>
        <time>2018-04-22T15:17:36Z</time>
      </trkpt>
      <trkpt lat="50.08901" lon="3.76371">
        <ele>195</ele>
        <time>2018-04-22T15:18:36Z</time>
      </trkpt>
      <trkpt lat="50.08883" lon="3.76375">
        <ele>194</ele>
        <time>2018-04-22T15:19:36Z</time>
      </trkpt>
      <trkpt lat="50.08836" lon="3.76373">
        <ele>193</ele>
        <time>2018-04-22T15:20:36Z</time>
      </trkpt>
      <trkpt lat="50.08836" lon="3.76373">
        <ele>193</ele>
        <time>2018-04-22T15:21:36Z</time>
      </trkpt>
      <trkpt lat="50.08733" lon="3.7637">
        <ele>190</ele>
        <time>2018-04-22T15:22:36Z</time>
      </trkpt>
      <trkpt lat="50.08708" lon="3.76374">
        <ele>189</ele>
        <time>2018-04-22T15:23:36Z</time>
      </trkpt>
      <trkpt lat="50.08644" lon="3.7639">
        <ele>188</ele>
        <time>2018-04-22T15:24:36Z</time>
      </trkpt>
      <trkpt lat="50.08594" lon="3.76394">
        <ele>186</ele>
        <time>2018-04-22T15:25:36Z</time>
      </trkpt>
      <trkpt lat="50.08583" lon="3.76399">
        <ele>186</ele>
        <time>2018-04-22T15:26:36Z</time>
      </trkpt>
      <trkpt lat="50.08575" lon="3.76407">
        <ele>186</ele>
        <time>2018-04-22T15:27:36Z</time>
      </trkpt>
      <trkpt lat="50.0853" lon="3.76472">
        <ele>186</ele>
        <time>2018-04-22T15:28:36Z</time>
      </trkpt>
      <trkpt lat="50.0852" lon="3.76485">
        <ele>186</ele>
        <time>2018-04-22T15:29:36Z</time>
      </trkpt>
      <trkpt lat="50.08479" lon="3.76519">
        <ele>186</ele>
        <time>2018-04-22T15:30:36Z</time>
      </trkpt>
      <trkpt lat="50.08454" lon="3.76535">
        <ele>186</ele>
        <time>2018-04-22T15:31:36Z</time>
      </trkpt>
      <trkpt lat="50.08369" lon="3.76576">
        <ele>185</ele>
        <time>2018-04-22T15:32:36Z</time>
      </trkpt>
      <trkpt lat="50.0834" lon="3.76587">
        <ele>184</ele>
        <time>2018-04-22T15:33:36Z</time>
      </trkpt>
      <trkpt lat="50.08322" lon="3.76588">
        <ele>184</ele>
        <time>2018-04-22T15:34:36Z</time>
      </trkpt>
      <trkpt lat="50.08315" lon="3.76586">
        <ele>184</ele>
        <time>2018-04-22T15:35:36Z</time>
      </trkpt>
      <trkpt lat="50.08309" lon="3.76581">
        <ele>184</ele>
        <time>2018-04-22T15:36:36Z</time>
      </trkpt>
      <trkpt lat="50.08236" lon="3.76489">
        <ele>179</ele>
        <time>2018-04-22T15:37:36Z</time>
      </trkpt>
      <trkpt lat="50.08203" lon="3.76439">
        <ele>176</ele>
        <time>2018-04-22T15:38:36Z</time>
      </trkpt>
      <trkpt lat="50.08153" lon="3.76479">
        <ele>177</ele>
        <time>2018-04-22T15:39:36Z</time>
      </trkpt>
      <trkpt lat="50.0809" lon="3.76535">
        <ele>178</ele>
        <time>2018-04-22T15:40:36Z</time>
      </trkpt>
      <trkpt lat="50.0803" lon="3.7662">
        <ele>178</ele>
        <time>2018-04-22T15:41:36Z</time>
      </trkpt>
      <trkpt lat="50.07995" lon="3.76659">
        <ele>179</ele>
        <time>2018-04-22T15:42:36Z</time>
      </trkpt>
      <trkpt lat="50.07995" lon="3.76659">
        <ele>179</ele>
        <time>2018-04-22T15:43:36Z</time>
      </trkpt>
      <trkpt lat="50.07931" lon="3.76727">
        <ele>177</ele>
        <time>2018-04-22T15:44:36Z</time>
      </trkpt>
      <trkpt lat="50.07874" lon="3.76806">
        <ele>177</ele>
        <time>2018-04-22T15:45:36Z</time>
      </trkpt>
      <trkpt lat="50.07865" lon="3.76822">
        <ele>177</ele>
        <time>2018-04-22T15:46:36Z</time>
      </trkpt>
      <trkpt lat="50.07855" lon="3.76859">
        <ele>178</ele>
        <time>2018-04-22T15:47:36Z</time>
      </trkpt>
      <trkpt lat="50.07857" lon="3.76864">
        <ele>178</ele>
        <time>2018-04-22T15:48:36Z</time>
      </trkpt>
      <trkpt lat="50.07872" lon="3.76864">
        <ele>179</ele>
        <time>2018-04-22T15:49:36Z</time>
      </trkpt>
      <trkpt lat="50.07896" lon="3.76887">
        <ele>180</ele>
        <time>2018-04-22T15:50:36Z</time>
      </trkpt>
      <trkpt lat="50.0801" lon="3.77017">
        <ele>184</ele>
        <time>2018-04-22T15:51:36Z</time>
      </trkpt>
      <trkpt lat="50.08067" lon="3.771">
        <ele>187</ele>
        <time>2018-04-22T15:52:36Z</time>
      </trkpt>
      <trkpt lat="50.08113" lon="3.77175">
        <ele>189</ele>
        <time>2018-04-22T15:53:36Z</time>
      </trkpt>
      <trkpt lat="50.08113" lon="3.77175">
        <ele>189</ele>
        <time>2018-04-22T15:54:36Z</time>
      </trkpt>
      <trkpt lat="50.0815" lon="3.77236">
        <ele>190</ele>
        <time>2018-04-22T15:55:36Z</time>
      </trkpt>
      <trkpt lat="50.08171" lon="3.77273">
        <ele>191</ele>
        <time>2018-04-22T15:56:36Z</time>
      </trkpt>
      <trkpt lat="50.08338" lon="3.77641">
        <ele>190</ele>
        <time>2018-04-22T15:57:36Z</time>
      </trkpt>
      <trkpt lat="50.08346" lon="3.77665">
        <ele>190</ele>
        <time>2018-04-22T15:58:36Z</time>
      </trkpt>
      <trkpt lat="50.08416" lon="3.77963">
        <ele>194</ele>
        <time>2018-04-22T15:59:36Z</time>
      </trkpt>
      <trkpt lat="50.08436" lon="3.78056">
        <ele>195</ele>
        <time>2018-04-22T16:00:36Z</time>
      </trkpt>
      <trkpt lat="50.08445" lon="3.78112">
        <ele>196</ele>
        <time>2018-04-22T16:01:36Z</time>
      </trkpt>
      <trkpt lat="50.08466" lon="3.78301">
        <ele>194</ele>
        <time>2018-04-22T16:02:36Z</time>
      </trkpt>
      <trkpt lat="50.08673" lon="3.78507">
        <ele>190</ele>
        <time>2018-04-22T16:03:36Z</time>
      </trkpt>
      <trkpt lat="50.08758" lon="3.78587">
        <ele>186</ele>
        <time>2018-04-22T16:04:36Z</time>
      </trkpt>
      <trkpt lat="50.0886" lon="3.7869">
        <ele>181</ele>
        <time>2018-04-22T16:05:36Z</time>
      </trkpt>
      <trkpt lat="50.0886" lon="3.7869">
        <ele>181</ele>
        <time>2018-04-22T16:06:36Z</time>
      </trkpt>
      <trkpt lat="50.08943" lon="3.78782">
        <ele>176</ele>
        <time>2018-04-22T16:07:36Z</time>
      </trkpt>
      <trkpt lat="50.08953" lon="3.7879">
        <ele>176</ele>
        <time>2018-04-22T16:08:36Z</time>
      </trkpt>
      <trkpt lat="50.0898" lon="3.78802">
        <ele>176</ele>
        <time>2018-04-22T16:09:36Z</time>
      </trkpt>
      <trkpt lat="50.09011" lon="3.78811">
        <ele>175</ele>
        <time>2018-04-22T16:10:36Z</time>
      </trkpt>
      <trkpt lat="50.09051" lon="3.78816">
        <ele>174</ele>
        <time>2018-04-22T16:11:36Z</time>
      </trkpt>
      <trkpt lat="50.09171" lon="3.78837">
        <ele>170</ele>
        <time>2018-04-22T16:12:36Z</time>
      </trkpt>
      <trkpt lat="50.09221" lon="3.78855">
        <ele>170</ele>
        <time>2018-04-22T16:13:36Z</time>
      </trkpt>
      <trkpt lat="50.09267" lon="3.78881">
        <ele>169</ele>
        <time>2018-04-22T16:14:36Z</time>
      </trkpt>
      <trkpt lat="50.09318" lon="3.78925">
        <ele>165</ele>
        <time>2018-04-22T16:15:36Z</time>
      </trkpt>
      <trkpt lat="50.09331" lon="3.78943">
        <ele>164</ele>
        <time>2018-04-22T16:16:36Z</time>
      </trkpt>
      <trkpt lat="50.09417" lon="3.79131">
        <ele>158</ele>
        <time>2018-04-22T16:17:36Z</time>
      </trkpt>
      <trkpt lat="50.09402" lon="3.79153">
        <ele>159</ele>
        <time>2018-04-22T16:18:36Z</time>
      </trkpt>
      <trkpt lat="50.09389" lon="3.79182">
        <ele>159</ele>
        <time>2018-04-22T16:19:36Z</time>
      </trkpt>
      <trkpt lat="50.09376" lon="3.79224">
        <ele>159</ele>
        <time>2018-04-22T16:20:36Z</time>
      </trkpt>
      <trkpt lat="50.09363" lon="3.79295">
        <ele>159</ele>
        <time>2018-04-22T16:21:36Z</time>
      </trkpt>
      <trkpt lat="50.09354" lon="3.7933">
        <ele>159</ele>
        <time>2018-04-22T16:22:36Z</time>
      </trkpt>
      <trkpt lat="50.0935" lon="3.79365">
        <ele>160</ele>
        <time>2018-04-22T16:23:36Z</time>
      </trkpt>
      <trkpt lat="50.09335" lon="3.79427">
        <ele>162</ele>
        <time>2018-04-22T16:24:36Z</time>
      </trkpt>
      <trkpt lat="50.09304" lon="3.79523">
        <ele>164</ele>
        <time>2018-04-22T16:25:36Z</time>
      </trkpt>
      <trkpt lat="50.09303" lon="3.79531">
        <ele>164</ele>
        <time>2018-04-22T16:26:36Z</time>
      </trkpt>
      <trkpt lat="50.09304" lon="3.79541">
        <ele>164</ele>
        <time>2018-04-22T16:27:36Z</time>
      </trkpt>
      <trkpt lat="50.09307" lon="3.79548">
        <ele>164</ele>
        <time>2018-04-22T16:28:36Z</time>
      </trkpt>
      <trkpt lat="50.09327" lon="3.79574">
        <ele>163</ele>
        <time>2018-04-22T16:29:36Z</time>
      </trkpt>
      <trkpt lat="50.09438" lon="3.79712">
        <ele>163</ele>
        <time>2018-04-22T16:30:36Z</time>
      </trkpt>
      <trkpt lat="50.09453" lon="3.7974">
        <ele>163</ele>
        <time>2018-04-22T16:31:36Z</time>
      </trkpt>
      <trkpt lat="50.09505" lon="3.7985">
        <ele>160</ele>
        <time>2018-04-22T16:32:36Z</time>
      </trkpt>
      <trkpt lat="50.09549" lon="3.7994">
        <ele>158</ele>
        <time>2018-04-22T16:33:36Z</time>
      </trkpt>
      <trkpt lat="50.09593" lon="3.80006">
        <ele>158</ele>
        <time>2018-04-22T16:34:36Z</time>
      </trkpt>
      <trkpt lat="50.0961" lon="3.80037">
        <ele>157</ele>
        <time>2018-04-22T16:35:36Z</time>
      </trkpt>
      <trkpt lat="50.09671" lon="3.80162">
        <ele>154</ele>
        <time>2018-04-22T16:36:36Z</time>
      </trkpt>
      <trkpt lat="50.09695" lon="3.80216">
        <ele>152</ele>
        <time>2018-04-22T16:37:36Z</time>
      </trkpt>
      <trkpt lat="50.09735" lon="3.80339">
        <ele>149</ele>
        <time>2018-04-22T16:38:36Z</time>
      </trkpt>
      <trkpt lat="50.09745" lon="3.80365">
        <ele>148</ele>
        <time>2018-04-22T16:39:36Z</time>
      </trkpt>
      <trkpt lat="50.09745" lon="3.80365">
        <ele>148</ele>
        <time>2018-04-22T16:40:36Z</time>
      </trkpt>
      <trkpt lat="50.0978" lon="3.80429">
        <ele>148</ele>
        <time>2018-04-22T16:41:36Z</time>
      </trkpt>
      <trkpt lat="50.09795" lon="3.80461">
        <ele>148</ele>
        <time>2018-04-22T16:42:36Z</time>
      </trkpt>
      <trkpt lat="50.0981" lon="3.80501">
        <ele>148</ele>
        <time>2018-04-22T16:43:36Z</time>
      </trkpt>
      <trkpt lat="50.09815" lon="3.80511">
        <ele>147</ele>
        <time>2018-04-22T16:44:36Z</time>
      </trkpt>
      <trkpt lat="50.0987" lon="3.80575">
        <ele>146</ele>
        <time>2018-04-22T16:45:36Z</time>
      </trkpt>
      <trkpt lat="50.09877" lon="3.80587">
        <ele>146</ele>
        <time>2018-04-22T16:46:36Z</time>
      </trkpt>
      <trkpt lat="50.09881" lon="3.80605">
        <ele>146</ele>
        <time>2018-04-22T16:47:36Z</time>
      </trkpt>
      <trkpt lat="50.099" lon="3.80709">
        <ele>147</ele>
        <time>2018-04-22T16:48:36Z</time>
      </trkpt>
      <trkpt lat="50.09927" lon="3.80829">
        <ele>148</ele>
        <time>2018-04-22T16:49:36Z</time>
      </trkpt>
      <trkpt lat="50.09933" lon="3.80846">
        <ele>148</ele>
        <time>2018-04-22T16:50:36Z</time>
      </trkpt>
      <trkpt lat="50.09942" lon="3.80862">
        <ele>147</ele>
        <time>2018-04-22T16:51:36Z</time>
      </trkpt>
      <trkpt lat="50.09981" lon="3.80917">
        <ele>146</ele>
        <time>2018-04-22T16:52:36Z</time>
      </trkpt>
      <trkpt lat="50.09986" lon="3.80928">
        <ele>146</ele>
        <time>2018-04-22T16:53:36Z</time>
      </trkpt>
      <trkpt lat="50.0999" lon="3.80948">
        <ele>147</ele>
        <time>2018-04-22T16:54:36Z</time>
      </trkpt>
      <trkpt lat="50.09991" lon="3.81009">
        <ele>147</ele>
        <time>2018-04-22T16:55:36Z</time>
      </trkpt>
      <trkpt lat="50.09995" lon="3.81032">
        <ele>147</ele>
        <time>2018-04-22T16:56:36Z</time>
      </trkpt>
      <trkpt lat="50.10012" lon="3.81072">
        <ele>146</ele>
        <time>2018-04-22T16:57:36Z</time>
      </trkpt>
      <trkpt lat="50.10018" lon="3.81091">
        <ele>146</ele>
        <time>2018-04-22T16:58:36Z</time>
      </trkpt>
      <trkpt lat="50.10021" lon="3.81111">
        <ele>146</ele>
        <time>2018-04-22T16:59:36Z</time>
      </trkpt>
      <trkpt lat="50.10021" lon="3.8113">
        <ele>145</ele>
        <time>2018-04-22T17:00:36Z</time>
      </trkpt>
      <trkpt lat="50.10012" lon="3.81193">
        <ele>144</ele>
        <time>2018-04-22T17:01:36Z</time>
      </trkpt>
      <trkpt lat="50.10011" lon="3.81213">
        <ele>144</ele>
        <time>2018-04-22T17:02:36Z</time>
      </trkpt>
      <trkpt lat="50.10013" lon="3.81225">
        <ele>144</ele>
        <time>2018-04-22T17:03:36Z</time>
      </trkpt>
      <trkpt lat="50.1013" lon="3.8136">
        <ele>144</ele>
        <time>2018-04-22T17:04:36Z</time>
      </trkpt>
      <trkpt lat="50.10139" lon="3.81373">
        <ele>143</ele>
        <time>2018-04-22T17:05:36Z</time>
      </trkpt>
      <trkpt lat="50.10153" lon="3.81414">
        <ele>142</ele>
        <time>2018-04-22T17:06:36Z</time>
      </trkpt>
      <trkpt lat="50.10171" lon="3.81482">
        <ele>141</ele>
        <time>2018-04-22T17:07:36Z</time>
      </trkpt>
      <trkpt lat="50.10195" lon="3.81566">
        <ele>140</ele>
        <time>2018-04-22T17:08:36Z</time>
      </trkpt>
      <trkpt lat="50.10227" lon="3.81747">
        <ele>140</ele>
        <time>2018-04-22T17:09:36Z</time>
      </trkpt>
      <trkpt lat="50.10235" lon="3.81786">
        <ele>140</ele>
        <time>2018-04-22T17:10:36Z</time>
      </trkpt>
      <trkpt lat="50.10245" lon="3.8181">
        <ele>139</ele>
        <time>2018-04-22T17:11:36Z</time>
      </trkpt>
      <trkpt lat="50.10256" lon="3.81832">
        <ele>139</ele>
        <time>2018-04-22T17:12:36Z</time>
      </trkpt>
      <trkpt lat="50.10276" lon="3.81868">
        <ele>140</ele>
        <time>2018-04-22T17:13:36Z</time>
      </trkpt>
      <trkpt lat="50.10332" lon="3.81959">
        <ele>141</ele>
        <time>2018-04-22T17:14:36Z</time>
      </trkpt>
      <trkpt lat="50.10349" lon="3.81992">
        <ele>141</ele>
        <time>2018-04-22T17:15:36Z</time>
      </trkpt>
      <trkpt lat="50.10242" lon="3.82124">
        <ele>141</ele>
        <time>2018-04-22T17:16:36Z</time>
      </trkpt>
      <trkpt lat="50.10166" lon="3.82238">
        <ele>140</ele>
        <time>2018-04-22T17:17:36Z</time>
      </trkpt>
      <trkpt lat="50.10112" lon="3.82327">
        <ele>141</ele>
        <time>2018-04-22T17:18:36Z</time>
      </trkpt>
      <trkpt lat="50.10116" lon="3.82361">
        <ele>141</ele>
        <time>2018-04-22T17:19:36Z</time>
      </trkpt>
      <trkpt lat="50.1012" lon="3.82381">
        <ele>141</ele>
        <time>2018-04-22T17:20:36Z</time>
      </trkpt>
      <trkpt lat="50.10132" lon="3.82404">
        <ele>140</ele>
        <time>2018-04-22T17:21:36Z</time>
      </trkpt>
      <trkpt lat="50.10145" lon="3.82418">
        <ele>139</ele>
        <time>2018-04-22T17:22:36Z</time>
      </trkpt>
      <trkpt lat="50.10165" lon="3.82428">
        <ele>138</ele>
        <time>2018-04-22T17:23:36Z</time>
      </trkpt>
      <trkpt lat="50.10209" lon="3.82437">
        <ele>139</ele>
        <time>2018-04-22T17:24:36Z</time>
      </trkpt>
      <trkpt lat="50.1029" lon="3.82501">
        <ele>140</ele>
        <time>2018-04-22T17:25:36Z</time>
      </trkpt>
      <trkpt lat="50.10297" lon="3.82516">
        <ele>140</ele>
        <time>2018-04-22T17:26:36Z</time>
      </trkpt>
      <trkpt lat="50.10301" lon="3.82543">
        <ele>140</ele>
        <time>2018-04-22T17:27:36Z</time>
      </trkpt>
      <trkpt lat="50.10309" lon="3.82568">
        <ele>140</ele>
        <time>2018-04-22T17:28:36Z</time>
      </trkpt>
      <trkpt lat="50.10309" lon="3.82568">
        <ele>140</ele>
        <time>2018-04-22T17:29:36Z</time>
      </trkpt>
      <trkpt lat="50.10315" lon="3.82585">
        <ele>141</ele>
        <time>2018-04-22T17:30:36Z</time>
      </trkpt>
      <trkpt lat="50.10372" lon="3.82676">
        <ele>144</ele>
        <time>2018-04-22T17:31:36Z</time>
      </trkpt>
      <trkpt lat="50.10407" lon="3.82743">
        <ele>146</ele>
        <time>2018-04-22T17:32:36Z</time>
      </trkpt>
      <trkpt lat="50.10447" lon="3.82838">
        <ele>148</ele>
        <time>2018-04-22T17:33:36Z</time>
      </trkpt>
      <trkpt lat="50.10622" lon="3.83189">
        <ele>152</ele>
        <time>2018-04-22T17:34:36Z</time>
      </trkpt>
      <trkpt lat="50.10677" lon="3.83288">
        <ele>153</ele>
        <time>2018-04-22T17:35:36Z</time>
      </trkpt>
      <trkpt lat="50.10766" lon="3.83462">
        <ele>158</ele>
        <time>2018-04-22T17:36:36Z</time>
      </trkpt>
      <trkpt lat="50.10822" lon="3.83576">
        <ele>160</ele>
        <time>2018-04-22T17:37:36Z</time>
      </trkpt>
      <trkpt lat="50.10865" lon="3.83727">
        <ele>164</ele>
        <time>2018-04-22T17:38:36Z</time>
      </trkpt>
      <trkpt lat="50.10957" lon="3.84065">
        <ele>180</ele>
        <time>2018-04-22T17:39:36Z</time>
      </trkpt>
      <trkpt lat="50.10972" lon="3.84129">
        <ele>182</ele>
        <time>2018-04-22T17:40:36Z</time>
      </trkpt>
      <trkpt lat="50.10999" lon="3.84301">
        <ele>188</ele>
        <time>2018-04-22T17:41:36Z</time>
      </trkpt>
      <trkpt lat="50.11021" lon="3.843">
        <ele>188</ele>
        <time>2018-04-22T17:42:36Z</time>
      </trkpt>
      <trkpt lat="50.11055" lon="3.84292">
        <ele>188</ele>
        <time>2018-04-22T17:43:36Z</time>
      </trkpt>
      <trkpt lat="50.11055" lon="3.84292">
        <ele>188</ele>
        <time>2018-04-22T17:44:36Z</time>
      </trkpt>
      <trkpt lat="50.11074" lon="3.84276">
        <ele>188</ele>
        <time>2018-04-22T17:45:36Z</time>
      </trkpt>
      <trkpt lat="50.11119" lon="3.84227">
        <ele>187</ele>
        <time>2018-04-22T17:46:36Z</time>
      </trkpt>
      <trkpt lat="50.11193" lon="3.84169">
        <ele>186</ele>
        <time>2018-04-22T17:47:36Z</time>
      </trkpt>
      <trkpt lat="50.11202" lon="3.84159">
        <ele>186</ele>
        <time>2018-04-22T17:48:36Z</time>
      </trkpt>
      <trkpt lat="50.11214" lon="3.84128">
        <ele>186</ele>
        <time>2018-04-22T17:49:36Z</time>
      </trkpt>
      <trkpt lat="50.11222" lon="3.84105">
        <ele>185</ele>
        <time>2018-04-22T17:50:36Z</time>
      </trkpt>
      <trkpt lat="50.11227" lon="3.84097">
        <ele>185</ele>
        <time>2018-04-22T17:51:36Z</time>
      </trkpt>
      <trkpt lat="50.1124" lon="3.84082">
        <ele>186</ele>
        <time>2018-04-22T17:52:36Z</time>
      </trkpt>
      <trkpt lat="50.11264" lon="3.84067">
        <ele>185</ele>
        <time>2018-04-22T17:53:36Z</time>
      </trkpt>
      <trkpt lat="50.11278" lon="3.8406">
        <ele>185</ele>
        <time>2018-04-22T17:54:36Z</time>
      </trkpt>
      <trkpt lat="50.11315" lon="3.84061">
        <ele>183</ele>
        <time>2018-04-22T17:55:36Z</time>
      </trkpt>
      <trkpt lat="50.11327" lon="3.84058">
        <ele>183</ele>
        <time>2018-04-22T17:56:36Z</time>
      </trkpt>
      <trkpt lat="50.1134" lon="3.8405">
        <ele>182</ele>
        <time>2018-04-22T17:57:36Z</time>
      </trkpt>
      <trkpt lat="50.11364" lon="3.84025">
        <ele>180</ele>
        <time>2018-04-22T17:58:36Z</time>
      </trkpt>
      <trkpt lat="50.11362" lon="3.83975">
        <ele>180</ele>
        <time>2018-04-22T17:59:36Z</time>
      </trkpt>
      <trkpt lat="50.11358" lon="3.83941">
        <ele>180</ele>
        <time>2018-04-22T18:00:36Z</time>
      </trkpt>
      <trkpt lat="50.11336" lon="3.83822">
        <ele>180</ele>
        <time>2018-04-22T18:01:36Z</time>
      </trkpt>
      <trkpt lat="50.1133" lon="3.8378">
        <ele>181</ele>
        <time>2018-04-22T18:02:36Z</time>
      </trkpt>
      <trkpt lat="50.11331" lon="3.83747">
        <ele>181</ele>
        <time>2018-04-22T18:03:36Z</time>
      </trkpt>
      <trkpt lat="50.11424" lon="3.83436">
        <ele>185</ele>
        <time>2018-04-22T18:04:36Z</time>
      </trkpt>
      <trkpt lat="50.11494" lon="3.83197">
        <ele>185</ele>
        <time>2018-04-22T18:05:36Z</time>
      </trkpt>
      <trkpt lat="50.11527" lon="3.83062">
        <ele>185</ele>
        <time>2018-04-22T18:06:36Z</time>
      </trkpt>
      <trkpt lat="50.11551" lon="3.83007">
        <ele>185</ele>
        <time>2018-04-22T18:07:36Z</time>
      </trkpt>
      <trkpt lat="50.11577" lon="3.82973">
        <ele>185</ele>
        <time>2018-04-22T18:08:36Z</time>
      </trkpt>
      <trkpt lat="50.11678" lon="3.82867">
        <ele>186</ele>
        <time>2018-04-22T18:09:36Z</time>
      </trkpt>
      <trkpt lat="50.1177" lon="3.82779">
        <ele>189</ele>
        <time>2018-04-22T18:10:36Z</time>
      </trkpt>
      <trkpt lat="50.11863" lon="3.82679">
        <ele>188</ele>
        <time>2018-04-22T18:11:36Z</time>
      </trkpt>
      <trkpt lat="50.11943" lon="3.82586">
        <ele>189</ele>
        <time>2018-04-22T18:12:36Z</time>
      </trkpt>
      <trkpt lat="50.11943" lon="3.82586">
        <ele>189</ele>
        <time>2018-04-22T18:13:36Z</time>
      </trkpt>
      <trkpt lat="50.12045" lon="3.82446">
        <ele>189</ele>
        <time>2018-04-22T18:14:36Z</time>
      </trkpt>
      <trkpt lat="50.12059" lon="3.82414">
        <ele>190</ele>
        <time>2018-04-22T18:15:36Z</time>
      </trkpt>
      <trkpt lat="50.12029" lon="3.82344">
        <ele>191</ele>
        <time>2018-04-22T18:16:36Z</time>
      </trkpt>
      <trkpt lat="50.12005" lon="3.8228">
        <ele>190</ele>
        <time>2018-04-22T18:17:36Z</time>
      </trkpt>
      <trkpt lat="50.11997" lon="3.82252">
        <ele>190</ele>
        <time>2018-04-22T18:18:36Z</time>
      </trkpt>
      <trkpt lat="50.11975" lon="3.82154">
        <ele>188</ele>
        <time>2018-04-22T18:19:36Z</time>
      </trkpt>
      <trkpt lat="50.1195" lon="3.8209">
        <ele>186</ele>
        <time>2018-04-22T18:20:36Z</time>
      </trkpt>
      <trkpt lat="50.11889" lon="3.81986">
        <ele>182</ele>
        <time>2018-04-22T18:21:36Z</time>
      </trkpt>
      <trkpt lat="50.11862" lon="3.81949">
        <ele>180</ele>
        <time>2018-04-22T18:22:36Z</time>
      </trkpt>
      <trkpt lat="50.11723" lon="3.81805">
        <ele>170</ele>
        <time>2018-04-22T18:23:36Z</time>
      </trkpt>
      <trkpt lat="50.11669" lon="3.81737">
        <ele>165</ele>
        <time>2018-04-22T18:24:36Z</time>
      </trkpt>
      <trkpt lat="50.11648" lon="3.81707">
        <ele>163</ele>
        <time>2018-04-22T18:25:36Z</time>
      </trkpt>
      <trkpt lat="50.11623" lon="3.81667">
        <ele>161</ele>
        <time>2018-04-22T18:26:36Z</time>
      </trkpt>
      <trkpt lat="50.1158" lon="3.81589">
        <ele>157</ele>
        <time>2018-04-22T18:27:36Z</time>
      </trkpt>
      <trkpt lat="50.1158" lon="3.81589">
        <ele>157</ele>
        <time>2018-04-22T18:28:36Z</time>
      </trkpt>
      <trkpt lat="50.11554" lon="3.81541">
        <ele>154</ele>
        <time>2018-04-22T18:29:36Z</time>
      </trkpt>
      <trkpt lat="50.11523" lon="3.81501">
        <ele>151</ele>
        <time>2018-04-22T18:30:36Z</time>
      </trkpt>
      <trkpt lat="50.11516" lon="3.81487">
        <ele>151</ele>
        <time>2018-04-22T18:31:36Z</time>
      </trkpt>
      <trkpt lat="50.11514" lon="3.81473">
        <ele>151</ele>
        <time>2018-04-22T18:32:36Z</time>
      </trkpt>
      <trkpt lat="50.11514" lon="3.81456">
        <ele>150</ele>
        <time>2018-04-22T18:33:36Z</time>
      </trkpt>
      <trkpt lat="50.1153" lon="3.81373">
        <ele>149</ele>
        <time>2018-04-22T18:34:36Z</time>
      </trkpt>
      <trkpt lat="50.11529" lon="3.81353">
        <ele>149</ele>
        <time>2018-04-22T18:35:36Z</time>
      </trkpt>
      <trkpt lat="50.11516" lon="3.81328">
        <ele>148</ele>
        <time>2018-04-22T18:36:36Z</time>
      </trkpt>
      <trkpt lat="50.11463" lon="3.81273">
        <ele>145</ele>
        <time>2018-04-22T18:37:36Z</time>
      </trkpt>
      <trkpt lat="50.11456" lon="3.8126">
        <ele>145</ele>
        <time>2018-04-22T18:38:36Z</time>
      </trkpt>
      <trkpt lat="50.11455" lon="3.81252">
        <ele>145</ele>
        <time>2018-04-22T18:39:36Z</time>
      </trkpt>
      <trkpt lat="50.11457" lon="3.81242">
        <ele>144</ele>
        <time>2018-04-22T18:40:36Z</time>
      </trkpt>
      <trkpt lat="50.11527" lon="3.81103">
        <ele>142</ele>
        <time>2018-04-22T18:41:36Z</time>
      </trkpt>
      <trkpt lat="50.11547" lon="3.8107">
        <ele>141</ele>
        <time>2018-04-22T18:42:36Z</time>
      </trkpt>
      <trkpt lat="50.11548" lon="3.81061">
        <ele>141</ele>
        <time>2018-04-22T18:43:36Z</time>
      </trkpt>
      <trkpt lat="50.11538" lon="3.81029">
        <ele>141</ele>
        <time>2018-04-22T18:44:36Z</time>
      </trkpt>
      <trkpt lat="50.11525" lon="3.81008">
        <ele>140</ele>
        <time>2018-04-22T18:45:36Z</time>
      </trkpt>
      <trkpt lat="50.11475" lon="3.80867">
        <ele>140</ele>
        <time>2018-04-22T18:46:36Z</time>
      </trkpt>
      <trkpt lat="50.11408" lon="3.80699">
        <ele>139</ele>
        <time>2018-04-22T18:47:36Z</time>
      </trkpt>
      <trkpt lat="50.11389" lon="3.80622">
        <ele>140</ele>
        <time>2018-04-22T18:48:36Z</time>
      </trkpt>
      <trkpt lat="50.11382" lon="3.80586">
        <ele>140</ele>
        <time>2018-04-22T18:49:36Z</time>
      </trkpt>
      <trkpt lat="50.11382" lon="3.80502">
        <ele>141</ele>
        <time>2018-04-22T18:50:36Z</time>
      </trkpt>
      <trkpt lat="50.11379" lon="3.80484">
        <ele>141</ele>
        <time>2018-04-22T18:51:36Z</time>
      </trkpt>
      <trkpt lat="50.11375" lon="3.80473">
        <ele>141</ele>
        <time>2018-04-22T18:52:36Z</time>
      </trkpt>
      <trkpt lat="50.11319" lon="3.80423">
        <ele>142</ele>
        <time>2018-04-22T18:53:36Z</time>
      </trkpt>
      <trkpt lat="50.11259" lon="3.80375">
        <ele>142</ele>
        <time>2018-04-22T18:54:36Z</time>
      </trkpt>
      <trkpt lat="50.11317" lon="3.80313">
        <ele>142</ele>
        <time>2018-04-22T18:55:36Z</time>
      </trkpt>
      <trkpt lat="50.11369" lon="3.8025">
        <ele>141</ele>
        <time>2018-04-22T18:56:36Z</time>
      </trkpt>
      <trkpt lat="50.11374" lon="3.80239">
        <ele>141</ele>
        <time>2018-04-22T18:57:36Z</time>
      </trkpt>
      <trkpt lat="50.11377" lon="3.80223">
        <ele>141</ele>
        <time>2018-04-22T18:58:36Z</time>
      </trkpt>
      <trkpt lat="50.11382" lon="3.80174">
        <ele>141</ele>
        <time>2018-04-22T18:59:36Z</time>
      </trkpt>
      <trkpt lat="50.11388" lon="3.80148">
        <ele>141</ele>
        <time>2018-04-22T19:00:36Z</time>
      </trkpt>
      <trkpt lat="50.1142" lon="3.80077">
        <ele>140</ele>
        <time>2018-04-22T19:01:36Z</time>
      </trkpt>
      <trkpt lat="50.11455" lon="3.80021">
        <ele>140</ele>
        <time>2018-04-22T19:02:36Z</time>
      </trkpt>
      <trkpt lat="50.11487" lon="3.79983">
        <ele>141</ele>
        <time>2018-04-22T19:03:36Z</time>
      </trkpt>
      <trkpt lat="50.11516" lon="3.7993">
        <ele>142</ele>
        <time>2018-04-22T19:04:36Z</time>
      </trkpt>
      <trkpt lat="50.11534" lon="3.79893">
        <ele>141</ele>
        <time>2018-04-22T19:05:36Z</time>
      </trkpt>
      <trkpt lat="50.11548" lon="3.7986">
        <ele>140</ele>
        <time>2018-04-22T19:06:36Z</time>
      </trkpt>
      <trkpt lat="50.11571" lon="3.79794">
        <ele>139</ele>
        <time>2018-04-22T19:07:36Z</time>
      </trkpt>
      <trkpt lat="50.11588" lon="3.79761">
        <ele>139</ele>
        <time>2018-04-22T19:08:36Z</time>
      </trkpt>
      <trkpt lat="50.1162" lon="3.79691">
        <ele>138</ele>
        <time>2018-04-22T19:09:36Z</time>
      </trkpt>
      <trkpt lat="50.11643" lon="3.79625">
        <ele>137</ele>
        <time>2018-04-22T19:10:36Z</time>
      </trkpt>
      <trkpt lat="50.11659" lon="3.79563">
        <ele>137</ele>
        <time>2018-04-22T19:11:36Z</time>
      </trkpt>
      <trkpt lat="50.11683" lon="3.79412">
        <ele>139</ele>
        <time>2018-04-22T19:12:36Z</time>
      </trkpt>
      <trkpt lat="50.11683" lon="3.79412">
        <ele>139</ele>
        <time>2018-04-22T19:13:36Z</time>
      </trkpt>
      <trkpt lat="50.11714" lon="3.79199">
        <ele>138</ele>
        <time>2018-04-22T19:14:36Z</time>
      </trkpt>
      <trkpt lat="50.1172" lon="3.79108">
        <ele>137</ele>
        <time>2018-04-22T19:15:36Z</time>
      </trkpt>
      <trkpt lat="50.11727" lon="3.79057">
        <ele>137</ele>
        <time>2018-04-22T19:16:36Z</time>
      </trkpt>
      <trkpt lat="50.11774" lon="3.78851">
        <ele>137</ele>
        <time>2018-04-22T19:17:36Z</time>
      </trkpt>
      <trkpt lat="50.11828" lon="3.78654">
        <ele>136</ele>
        <time>2018-04-22T19:18:36Z</time>
      </trkpt>
      <trkpt lat="50.11846" lon="3.78591">
        <ele>137</ele>
        <time>2018-04-22T19:19:36Z</time>
      </trkpt>
      <trkpt lat="50.11862" lon="3.78544">
        <ele>137</ele>
        <time>2018-04-22T19:20:36Z</time>
      </trkpt>
      <trkpt lat="50.1189" lon="3.78474">
        <ele>137</ele>
        <time>2018-04-22T19:21:36Z</time>
      </trkpt>
      <trkpt lat="50.11894" lon="3.78457">
        <ele>137</ele>
        <time>2018-04-22T19:22:36Z</time>
      </trkpt>
      <trkpt lat="50.11897" lon="3.78426">
        <ele>137</ele>
        <time>2018-04-22T19:23:36Z</time>
      </trkpt>
      <trkpt lat="50.11896" lon="3.78413">
        <ele>137</ele>
        <time>2018-04-22T19:24:36Z</time>
      </trkpt>
      <trkpt lat="50.11881" lon="3.78357">
        <ele>138</ele>
        <time>2018-04-22T19:25:36Z</time>
      </trkpt>
      <trkpt lat="50.11879" lon="3.78335">
        <ele>138</ele>
        <time>2018-04-22T19:26:36Z</time>
      </trkpt>
      <trkpt lat="50.11907" lon="3.78224">
        <ele>141</ele>
        <time>2018-04-22T19:27:36Z</time>
      </trkpt>
      <trkpt lat="50.11915" lon="3.78179">
        <ele>142</ele>
        <time>2018-04-22T19:28:36Z</time>
      </trkpt>
      <trkpt lat="50.11932" lon="3.78037">
        <ele>144</ele>
        <time>2018-04-22T19:29:36Z</time>
      </trkpt>
      <trkpt lat="50.11943" lon="3.77977">
        <ele>145</ele>
        <time>2018-04-22T19:30:36Z</time>
      </trkpt>
      <trkpt lat="50.11967" lon="3.77887">
        <ele>146</ele>
        <time>2018-04-22T19:31:36Z</time>
      </trkpt>
      <trkpt lat="50.11981" lon="3.778">
        <ele>146</ele>
        <time>2018-04-22T19:32:36Z</time>
      </trkpt>
      <trkpt lat="50.11995" lon="3.77734">
        <ele>145</ele>
        <time>2018-04-22T19:33:36Z</time>
      </trkpt>
      <trkpt lat="50.11995" lon="3.77734">
        <ele>145</ele>
        <time>2018-04-22T19:34:36Z</time>
      </trkpt>
      <trkpt lat="50.1201" lon="3.77667">
        <ele>144</ele>
        <time>2018-04-22T19:35:36Z</time>
      </trkpt>
      <trkpt lat="50.12031" lon="3.775">
        <ele>142</ele>
        <time>2018-04-22T19:36:36Z</time>
      </trkpt>
      <trkpt lat="50.1204" lon="3.77403">
        <ele>141</ele>
        <time>2018-04-22T19:37:36Z</time>
      </trkpt>
      <trkpt lat="50.12039" lon="3.77381">
        <ele>141</ele>
        <time>2018-04-22T19:38:36Z</time>
      </trkpt>
      <trkpt lat="50.12036" lon="3.77367">
        <ele>141</ele>
        <time>2018-04-22T19:39:36Z</time>
      </trkpt>
      <trkpt lat="50.12029" lon="3.77355">
        <ele>141</ele>
        <time>2018-04-22T19:40:36Z</time>
      </trkpt>
      <trkpt lat="50.11974" lon="3.77307">
        <ele>142</ele>
        <time>2018-04-22T19:41:36Z</time>
      </trkpt>
      <trkpt lat="50.11969" lon="3.77297">
        <ele>142</ele>
        <time>2018-04-22T19:42:36Z</time>
      </trkpt>
      <trkpt lat="50.11968" lon="3.7728">
        <ele>142</ele>
        <time>2018-04-22T19:43:36Z</time>
      </trkpt>
      <trkpt lat="50.11969" lon="3.7725">
        <ele>141</ele>
        <time>2018-04-22T19:44:36Z</time>
      </trkpt>
      <trkpt lat="50.11973" lon="3.77205">
        <ele>142</ele>
        <time>2018-04-22T19:45:36Z</time>
      </trkpt>
      <trkpt lat="50.11975" lon="3.77159">
        <ele>142</ele>
        <time>2018-04-22T19:46:36Z</time>
      </trkpt>
      <trkpt lat="50.11974" lon="3.77047">
        <ele>139</ele>
        <time>2018-04-22T19:47:36Z</time>
      </trkpt>
      <trkpt lat="50.11982" lon="3.7698">
        <ele>138</ele>
        <time>2018-04-22T19:48:36Z</time>
      </trkpt>
      <trkpt lat="50.12004" lon="3.76893">
        <ele>138</ele>
        <time>2018-04-22T19:49:36Z</time>
      </trkpt>
      <trkpt lat="50.12011" lon="3.76858">
        <ele>139</ele>
        <time>2018-04-22T19:50:36Z</time>
      </trkpt>
      <trkpt lat="50.12015" lon="3.76823">
        <ele>139</ele>
        <time>2018-04-22T19:51:36Z</time>
      </trkpt>
      <trkpt lat="50.12017" lon="3.7676">
        <ele>141</ele>
        <time>2018-04-22T19:52:36Z</time>
      </trkpt>
      <trkpt lat="50.12013" lon="3.76681">
        <ele>142</ele>
        <time>2018-04-22T19:53:36Z</time>
      </trkpt>
      <trkpt lat="50.11999" lon="3.7654">
        <ele>143</ele>
        <time>2018-04-22T19:54:36Z</time>
      </trkpt>
      <trkpt lat="50.11994" lon="3.76512">
        <ele>143</ele>
        <time>2018-04-22T19:55:36Z</time>
      </trkpt>
      <trkpt lat="50.11972" lon="3.76422">
        <ele>142</ele>
        <time>2018-04-22T19:56:36Z</time>
      </trkpt>
      <trkpt lat="50.11966" lon="3.76388">
        <ele>142</ele>
        <time>2018-04-22T19:57:36Z</time>
      </trkpt>
      <trkpt lat="50.12023" lon="3.76361">
        <ele>141</ele>
        <time>2018-04-22T19:58:36Z</time>
      </trkpt>
      <trkpt lat="50.12064" lon="3.76356">
        <ele>139</ele>
        <time>2018-04-22T19:59:36Z</time>
      </trkpt>
      <trkpt lat="50.12078" lon="3.76351">
        <ele>138</ele>
        <time>2018-04-22T20:00:36Z</time>
      </trkpt>
      <trkpt lat="50.12078" lon="3.76351">
        <ele>138</ele>
        <time>2018-04-22T20:01:36Z</time>
      </trkpt>
      <trkpt lat="50.12116" lon="3.7634">
        <ele>138</ele>
        <time>2018-04-22T20:02:36Z</time>
      </trkpt>
      <trkpt lat="50.12151" lon="3.7632">
        <ele>137</ele>
        <time>2018-04-22T20:03:36Z</time>
      </trkpt>
      <trkpt lat="50.12191" lon="3.76293">
        <ele>137</ele>
        <time>2018-04-22T20:04:36Z</time>
      </trkpt>
      <trkpt lat="50.12202" lon="3.76281">
        <ele>137</ele>
        <time>2018-04-22T20:05:36Z</time>
      </trkpt>
      <trkpt lat="50.12214" lon="3.76263">
        <ele>137</ele>
        <time>2018-04-22T20:06:36Z</time>
      </trkpt>
      <trkpt lat="50.12222" lon="3.7626">
        <ele>137</ele>
        <time>2018-04-22T20:07:36Z</time>
      </trkpt>
      <trkpt lat="50.12342" lon="3.76265">
        <ele>137</ele>
        <time>2018-04-22T20:08:36Z</time>
      </trkpt>
      <trkpt lat="50.12371" lon="3.76258">
        <ele>137</ele>
        <time>2018-04-22T20:09:36Z</time>
      </trkpt>
      <trkpt lat="50.124" lon="3.76308">
        <ele>137</ele>
        <time>2018-04-22T20:10:36Z</time>
      </trkpt>
      <trkpt lat="50.12404" lon="3.76327">
        <ele>137</ele>
        <time>2018-04-22T20:11:36Z</time>
      </trkpt>
      <trkpt lat="50.12406" lon="3.76358">
        <ele>138</ele>
        <time>2018-04-22T20:12:36Z</time>
      </trkpt>
      <trkpt lat="50.12409" lon="3.76363">
        <ele>138</ele>
        <time>2018-04-22T20:13:36Z</time>
      </trkpt>
      <trkpt lat="50.12421" lon="3.76375">
        <ele>138</ele>
        <time>2018-04-22T20:14:36Z</time>
      </trkpt>
      <trkpt lat="50.12437" lon="3.76384">
        <ele>138</ele>
        <time>2018-04-22T20:15:36Z</time>
      </trkpt>
      <trkpt lat="50.12459" lon="3.76401">
        <ele>138</ele>
        <time>2018-04-22T20:16:36Z</time>
      </trkpt>
      <trkpt lat="50.12479" lon="3.76411">
        <ele>138</ele>
        <time>2018-04-22T20:17:36Z</time>
      </trkpt>
      <trkpt lat="50.12549" lon="3.76409">
        <ele>137</ele>
        <time>2018-04-22T20:18:36Z</time>
      </trkpt>
      <trkpt lat="50.12568" lon="3.76405">
        <ele>137</ele>
        <time>2018-04-22T20:19:36Z</time>
      </trkpt>
      <trkpt lat="50.12593" lon="3.76396">
        <ele>137</ele>
        <time>2018-04-22T20:20:36Z</time>
      </trkpt>
      <trkpt lat="50.12604" lon="3.76387">
        <ele>137</ele>
        <time>2018-04-22T20:21:36Z</time>
      </trkpt>
      <trkpt lat="50.12628" lon="3.76364">
        <ele>137</ele>
        <time>2018-04-22T20:22:36Z</time>
      </trkpt>
      <trkpt lat="50.12654" lon="3.76349">
        <ele>137</ele>
        <time>2018-04-22T20:23:36Z</time>
      </trkpt>
      <trkpt lat="50.12654" lon="3.76349">
        <ele>137</ele>
        <time>2018-04-22T20:24:36Z</time>
      </trkpt>
      <trkpt lat="50.12783" lon="3.76285">
        <ele>136</ele>
        <time>2018-04-22T20:25:36Z</time>
      </trkpt>
      <trkpt lat="50.12788" lon="3.76279">
        <ele>136</ele>
        <time>2018-04-22T20:26:36Z</time>
      </trkpt>
      <trkpt lat="50.12791" lon="3.76269">
        <ele>136</ele>
        <time>2018-04-22T20:27:36Z</time>
      </trkpt>
      <trkpt lat="50.12813" lon="3.76103">
        <ele>135</ele>
        <time>2018-04-22T20:28:36Z</time>
      </trkpt>
      <trkpt lat="50.12821" lon="3.76066">
        <ele>136</ele>
        <time>2018-04-22T20:29:36Z</time>
      </trkpt>
      <trkpt lat="50.12832" lon="3.7603">
        <ele>136</ele>
        <time>2018-04-22T20:30:36Z</time>
      </trkpt>
      <trkpt lat="50.12854" lon="3.75982">
        <ele>136</ele>
        <time>2018-04-22T20:31:36Z</time>
      </trkpt>
      <trkpt lat="50.12858" lon="3.75986">
        <ele>135</ele>
        <time>2018-04-22T20:32:36Z</time>
      </trkpt>
      <trkpt lat="50.12893" lon="3.76">
        <ele>135</ele>
        <time>2018-04-22T20:33:36Z</time>
      </trkpt>
      <trkpt lat="50.12944" lon="3.76006">
        <ele>134</ele>
        <time>2018-04-22T20:34:36Z</time>
      </trkpt>
      <trkpt lat="50.12956" lon="3.75992">
        <ele>134</ele>
        <time>2018-04-22T20:35:36Z</time>
      </trkpt>
      <trkpt lat="50.12989" lon="3.75862">
        <ele>133</ele>
        <time>2018-04-22T20:36:36Z</time>
      </trkpt>
      <trkpt lat="50.13004" lon="3.75779">
        <ele>133</ele>
        <time>2018-04-22T20:37:36Z</time>
      </trkpt>
      <trkpt lat="50.13019" lon="3.75655">
        <ele>134</ele>
        <time>2018-04-22T20:38:36Z</time>
      </trkpt>
      <trkpt lat="50.13027" lon="3.75626">
        <ele>134</ele>
        <time>2018-04-22T20:39:36Z</time>
      </trkpt>
      <trkpt lat="50.13033" lon="3.7562">
        <ele>134</ele>
        <time>2018-04-22T20:40:36Z</time>
      </trkpt>
      <trkpt lat="50.13044" lon="3.75621">
        <ele>133</ele>
        <time>2018-04-22T20:41:36Z</time>
      </trkpt>
      <trkpt lat="50.1305" lon="3.75647">
        <ele>133</ele>
        <time>2018-04-22T20:42:36Z</time>
      </trkpt>
      <trkpt lat="50.13059" lon="3.75675">
        <ele>133</ele>
        <time>2018-04-22T20:43:36Z</time>
      </trkpt>
      <trkpt lat="50.13076" lon="3.75709">
        <ele>134</ele>
        <time>2018-04-22T20:44:36Z</time>
      </trkpt>
      <trkpt lat="50.13088" lon="3.75722">
        <ele>134</ele>
        <time>2018-04-22T20:45:36Z</time>
      </trkpt>
      <trkpt lat="50.13111" lon="3.75732">
        <ele>134</ele>
        <time>2018-04-22T20:46:36Z</time>
      </trkpt>
      <trkpt lat="50.13195" lon="3.75733">
        <ele>135</ele>
        <time>2018-04-22T20:47:36Z</time>
      </trkpt>
      <trkpt lat="50.13195" lon="3.75733">
        <ele>135</ele>
        <time>2018-04-22T20:48:36Z</time>
      </trkpt>
      <trkpt lat="50.13258" lon="3.75732">
        <ele>135</ele>
        <time>2018-04-22T20:49:36Z</time>
      </trkpt>
      <trkpt lat="50.13302" lon="3.75733">
        <ele>136</ele>
        <time>2018-04-22T20:50:36Z</time>
      </trkpt>
      <trkpt lat="50.13312" lon="3.75736">
        <ele>136</ele>
        <time>2018-04-22T20:51:36Z</time>
      </trkpt>
      <trkpt lat="50.13329" lon="3.75749">
        <ele>137</ele>
        <time>2018-04-22T20:52:36Z</time>
      </trkpt>
      <trkpt lat="50.13356" lon="3.75785">
        <ele>139</ele>
        <time>2018-04-22T20:53:36Z</time>
      </trkpt>
      <trkpt lat="50.13377" lon="3.75808">
        <ele>140</ele>
        <time>2018-04-22T20:54:36Z</time>
      </trkpt>
      <trkpt lat="50.13387" lon="3.75831">
        <ele>142</ele>
        <time>2018-04-22T20:55:36Z</time>
      </trkpt>
      <trkpt lat="50.13391" lon="3.75866">
        <ele>143</ele>
        <time>2018-04-22T20:56:36Z</time>
      </trkpt>
      <trkpt lat="50.13399" lon="3.7598">
        <ele>147</ele>
        <time>2018-04-22T20:57:36Z</time>
      </trkpt>
      <trkpt lat="50.13403" lon="3.75995">
        <ele>147</ele>
        <time>2018-04-22T20:58:36Z</time>
      </trkpt>
      <trkpt lat="50.13417" lon="3.76022">
        <ele>149</ele>
        <time>2018-04-22T20:59:36Z</time>
      </trkpt>
      <trkpt lat="50.13424" lon="3.7603">
        <ele>149</ele>
        <time>2018-04-22T21:00:36Z</time>
      </trkpt>
      <trkpt lat="50.13421" lon="3.76052">
        <ele>149</ele>
        <time>2018-04-22T21:01:36Z</time>
      </trkpt>
      <trkpt lat="50.13435" lon="3.76094">
        <ele>151</ele>
        <time>2018-04-22T21:02:36Z</time>
      </trkpt>
      <trkpt lat="50.13446" lon="3.76166">
        <ele>152</ele>
        <time>2018-04-22T21:03:36Z</time>
      </trkpt>
    </trkseg>
  </trk>
</gpx>